sensor_id;sensor_type;location;lat;lon;timestamp;temperature;humidity
16347;DHT22;8283;48.504;13.734;2023-07-13T00:00:18;25.70;66.40
16347;DHT22;8283;48.504;13.734;2023-07-13T00:03:03;25.70;66.50
16347;DHT22;8283;48.504;13.734;2023-07-13T00:05:57;25.60;66.50
16347;DHT22;8283;48.504;13.734;2023-07-13T00:08:42;25.60;68.00
16347;DHT22;8283;48.504;13.734;2023-07-13T00:11:26;25.60;66.70
16347;DHT22;8283;48.504;13.734;2023-07-13T00:14:12;25.50;66.70
16347;DHT22;8283;48.504;13.734;2023-07-13T00:16:56;25.40;67.00
16347;DHT22;8283;48.504;13.734;2023-07-13T00:19:41;25.40;66.90
16347;DHT22;8283;48.504;13.734;2023-07-13T00:22:25;25.30;67.20
16347;DHT22;8283;48.504;13.734;2023-07-13T00:25:11;25.30;67.30
16347;DHT22;8283;48.504;13.734;2023-07-13T00:27:56;25.30;67.90
16347;DHT22;8283;48.504;13.734;2023-07-13T00:30:40;25.30;67.80
16347;DHT22;8283;48.504;13.734;2023-07-13T00:33:25;25.20;67.70
16347;DHT22;8283;48.504;13.734;2023-07-13T00:36:10;25.30;68.00
16347;DHT22;8283;48.504;13.734;2023-07-13T00:38:55;25.30;68.50
16347;DHT22;8283;48.504;13.734;2023-07-13T00:41:39;25.30;68.50
16347;DHT22;8283;48.504;13.734;2023-07-13T00:44:23;25.30;68.70
16347;DHT22;8283;48.504;13.734;2023-07-13T00:47:07;25.40;68.70
16347;DHT22;8283;48.504;13.734;2023-07-13T00:49:52;25.40;68.70
16347;DHT22;8283;48.504;13.734;2023-07-13T00:52:39;25.50;68.80
16347;DHT22;8283;48.504;13.734;2023-07-13T00:55:25;25.50;69.00
16347;DHT22;8283;48.504;13.734;2023-07-13T00:58:10;25.50;68.40
16347;DHT22;8283;48.504;13.734;2023-07-13T01:00:54;25.60;68.50
16347;DHT22;8283;48.504;13.734;2023-07-13T01:03:38;25.60;68.30
16347;DHT22;8283;48.504;13.734;2023-07-13T01:06:24;25.60;68.50
16347;DHT22;8283;48.504;13.734;2023-07-13T01:09:10;25.60;68.70
16347;DHT22;8283;48.504;13.734;2023-07-13T01:11:55;25.60;68.80
16347;DHT22;8283;48.504;13.734;2023-07-13T01:14:39;25.60;68.80
16347;DHT22;8283;48.504;13.734;2023-07-13T01:17:25;25.70;68.90
16347;DHT22;8283;48.504;13.734;2023-07-13T01:20:10;25.70;68.80
16347;DHT22;8283;48.504;13.734;2023-07-13T01:22:54;25.70;68.80
16347;DHT22;8283;48.504;13.734;2023-07-13T01:25:39;25.70;68.80
16347;DHT22;8283;48.504;13.734;2023-07-13T01:28:25;25.80;68.70
16347;DHT22;8283;48.504;13.734;2023-07-13T01:31:11;25.80;68.90
16347;DHT22;8283;48.504;13.734;2023-07-13T01:33:55;25.80;68.70
16347;DHT22;8283;48.504;13.734;2023-07-13T01:36:40;25.80;68.70
16347;DHT22;8283;48.504;13.734;2023-07-13T01:39:25;25.80;68.70
16347;DHT22;8283;48.504;13.734;2023-07-13T01:42:10;25.80;68.70
16347;DHT22;8283;48.504;13.734;2023-07-13T01:44:54;25.80;68.70
16347;DHT22;8283;48.504;13.734;2023-07-13T01:47:39;25.80;68.60
16347;DHT22;8283;48.504;13.734;2023-07-13T01:50:23;25.80;68.60
16347;DHT22;8283;48.504;13.734;2023-07-13T01:53:08;25.70;68.40
16347;DHT22;8283;48.504;13.734;2023-07-13T01:55:52;25.70;68.40
16347;DHT22;8283;48.504;13.734;2023-07-13T01:58:37;25.70;68.40
16347;DHT22;8283;48.504;13.734;2023-07-13T02:01:21;25.60;68.40
16347;DHT22;8283;48.504;13.734;2023-07-13T02:04:05;25.60;68.50
16347;DHT22;8283;48.504;13.734;2023-07-13T02:06:51;25.60;68.60
16347;DHT22;8283;48.504;13.734;2023-07-13T02:09:35;25.50;68.70
16347;DHT22;8283;48.504;13.734;2023-07-13T02:12:19;25.50;69.50
16347;DHT22;8283;48.504;13.734;2023-07-13T02:15:04;25.50;68.80
16347;DHT22;8283;48.504;13.734;2023-07-13T02:17:49;25.50;69.00
16347;DHT22;8283;48.504;13.734;2023-07-13T02:20:33;25.50;68.90
16347;DHT22;8283;48.504;13.734;2023-07-13T02:23:17;25.50;68.90
16347;DHT22;8283;48.504;13.734;2023-07-13T02:26:04;25.50;68.90
16347;DHT22;8283;48.504;13.734;2023-07-13T02:28:49;25.50;68.90
16347;DHT22;8283;48.504;13.734;2023-07-13T02:31:33;25.50;68.90
16347;DHT22;8283;48.504;13.734;2023-07-13T02:34:20;25.40;68.90
16347;DHT22;8283;48.504;13.734;2023-07-13T02:37:04;25.40;69.00
16347;DHT22;8283;48.504;13.734;2023-07-13T02:39:48;25.40;69.20
16347;DHT22;8283;48.504;13.734;2023-07-13T02:42:33;25.40;69.30
16347;DHT22;8283;48.504;13.734;2023-07-13T02:45:18;25.30;69.40
16347;DHT22;8283;48.504;13.734;2023-07-13T02:48:02;25.30;69.40
16347;DHT22;8283;48.504;13.734;2023-07-13T02:50:47;25.30;69.50
16347;DHT22;8283;48.504;13.734;2023-07-13T02:53:31;25.30;69.50
16347;DHT22;8283;48.504;13.734;2023-07-13T02:56:16;25.30;69.60
16347;DHT22;8283;48.504;13.734;2023-07-13T02:59:01;25.30;69.60
16347;DHT22;8283;48.504;13.734;2023-07-13T03:01:45;25.30;69.60
16347;DHT22;8283;48.504;13.734;2023-07-13T03:04:29;25.30;69.60
16347;DHT22;8283;48.504;13.734;2023-07-13T03:07:14;25.30;69.70
16347;DHT22;8283;48.504;13.734;2023-07-13T03:10:00;25.30;69.70
16347;DHT22;8283;48.504;13.734;2023-07-13T03:12:55;25.20;69.80
16347;DHT22;8283;48.504;13.734;2023-07-13T03:15:42;25.20;70.10
16347;DHT22;8283;48.504;13.734;2023-07-13T03:18:28;25.20;69.70
16347;DHT22;8283;48.504;13.734;2023-07-13T03:21:12;25.20;69.90
16347;DHT22;8283;48.504;13.734;2023-07-13T03:23:57;25.20;69.80
16347;DHT22;8283;48.504;13.734;2023-07-13T03:26:42;25.10;69.70
16347;DHT22;8283;48.504;13.734;2023-07-13T03:29:26;25.10;69.80
16347;DHT22;8283;48.504;13.734;2023-07-13T03:32:11;25.10;69.90
16347;DHT22;8283;48.504;13.734;2023-07-13T03:34:56;25.10;69.90
16347;DHT22;8283;48.504;13.734;2023-07-13T03:37:40;25.10;69.80
16347;DHT22;8283;48.504;13.734;2023-07-13T03:40:30;25.10;70.00
16347;DHT22;8283;48.504;13.734;2023-07-13T03:43:14;25.10;70.10
16347;DHT22;8283;48.504;13.734;2023-07-13T03:45:59;25.10;70.10
16347;DHT22;8283;48.504;13.734;2023-07-13T03:48:45;25.10;70.20
16347;DHT22;8283;48.504;13.734;2023-07-13T03:51:30;25.20;70.60
16347;DHT22;8283;48.504;13.734;2023-07-13T03:54:21;25.20;70.40
16347;DHT22;8283;48.504;13.734;2023-07-13T03:57:05;25.20;70.90
16347;DHT22;8283;48.504;13.734;2023-07-13T03:59:55;25.20;70.40
16347;DHT22;8283;48.504;13.734;2023-07-13T04:02:40;25.20;70.40
16347;DHT22;8283;48.504;13.734;2023-07-13T04:05:28;25.20;70.40
16347;DHT22;8283;48.504;13.734;2023-07-13T04:08:15;25.20;70.50
16347;DHT22;8283;48.504;13.734;2023-07-13T04:11:00;25.20;70.70
16347;DHT22;8283;48.504;13.734;2023-07-13T04:13:49;25.30;70.70
16347;DHT22;8283;48.504;13.734;2023-07-13T04:16:34;25.30;70.70
16347;DHT22;8283;48.504;13.734;2023-07-13T04:19:19;25.30;70.70
16347;DHT22;8283;48.504;13.734;2023-07-13T04:22:04;25.30;70.80
16347;DHT22;8283;48.504;13.734;2023-07-13T04:24:48;25.30;71.00
16347;DHT22;8283;48.504;13.734;2023-07-13T04:27:33;25.30;71.00
16347;DHT22;8283;48.504;13.734;2023-07-13T04:30:18;25.30;71.10
16347;DHT22;8283;48.504;13.734;2023-07-13T04:33:02;25.30;71.10
16347;DHT22;8283;48.504;13.734;2023-07-13T04:35:46;25.30;71.20
16347;DHT22;8283;48.504;13.734;2023-07-13T04:38:31;25.30;71.30
16347;DHT22;8283;48.504;13.734;2023-07-13T04:41:16;25.30;71.20
16347;DHT22;8283;48.504;13.734;2023-07-13T04:44:01;25.30;71.20
16347;DHT22;8283;48.504;13.734;2023-07-13T04:46:47;25.30;71.20
16347;DHT22;8283;48.504;13.734;2023-07-13T04:49:31;25.30;71.20
16347;DHT22;8283;48.504;13.734;2023-07-13T04:52:16;25.40;71.20
16347;DHT22;8283;48.504;13.734;2023-07-13T04:55:00;25.40;71.30
16347;DHT22;8283;48.504;13.734;2023-07-13T04:57:45;25.40;71.20
16347;DHT22;8283;48.504;13.734;2023-07-13T05:00:31;25.40;71.20
16347;DHT22;8283;48.504;13.734;2023-07-13T05:03:15;25.20;70.90
16347;DHT22;8283;48.504;13.734;2023-07-13T05:06:03;25.40;70.80
16347;DHT22;8283;48.504;13.734;2023-07-13T05:08:48;25.50;71.20
16347;DHT22;8283;48.504;13.734;2023-07-13T05:11:32;25.50;71.00
16347;DHT22;8283;48.504;13.734;2023-07-13T05:14:16;25.60;71.20
16347;DHT22;8283;48.504;13.734;2023-07-13T05:17:01;25.50;71.30
16347;DHT22;8283;48.504;13.734;2023-07-13T05:19:45;25.60;71.60
16347;DHT22;8283;48.504;13.734;2023-07-13T05:22:29;25.60;71.60
16347;DHT22;8283;48.504;13.734;2023-07-13T05:25:14;25.70;71.80
16347;DHT22;8283;48.504;13.734;2023-07-13T05:27:58;25.70;72.00
16347;DHT22;8283;48.504;13.734;2023-07-13T05:30:47;25.80;72.00
16347;DHT22;8283;48.504;13.734;2023-07-13T05:33:31;25.90;72.50
16347;DHT22;8283;48.504;13.734;2023-07-13T05:36:15;25.90;72.00
16347;DHT22;8283;48.504;13.734;2023-07-13T05:39:00;26.00;72.10
16347;DHT22;8283;48.504;13.734;2023-07-13T05:41:44;26.00;72.20
16347;DHT22;8283;48.504;13.734;2023-07-13T05:44:29;26.10;72.20
16347;DHT22;8283;48.504;13.734;2023-07-13T05:47:13;26.20;72.20
16347;DHT22;8283;48.504;13.734;2023-07-13T05:49:58;26.20;72.00
16347;DHT22;8283;48.504;13.734;2023-07-13T05:52:43;26.30;71.90
16347;DHT22;8283;48.504;13.734;2023-07-13T05:55:27;26.40;71.90
16347;DHT22;8283;48.504;13.734;2023-07-13T05:58:12;26.40;71.60
16347;DHT22;8283;48.504;13.734;2023-07-13T06:01:05;26.40;71.50
16347;DHT22;8283;48.504;13.734;2023-07-13T06:03:50;26.50;71.50
16347;DHT22;8283;48.504;13.734;2023-07-13T06:06:34;26.50;71.30
16347;DHT22;8283;48.504;13.734;2023-07-13T06:09:18;26.60;71.40
16347;DHT22;8283;48.504;13.734;2023-07-13T06:12:03;26.60;71.60
16347;DHT22;8283;48.504;13.734;2023-07-13T06:14:48;26.70;71.50
16347;DHT22;8283;48.504;13.734;2023-07-13T06:17:32;26.80;71.40
16347;DHT22;8283;48.504;13.734;2023-07-13T06:20:17;26.80;71.00
16347;DHT22;8283;48.504;13.734;2023-07-13T06:23:01;26.90;70.90
16347;DHT22;8283;48.504;13.734;2023-07-13T06:25:46;26.90;70.40
16347;DHT22;8283;48.504;13.734;2023-07-13T06:28:31;26.90;70.20
16347;DHT22;8283;48.504;13.734;2023-07-13T06:31:16;26.90;70.10
16347;DHT22;8283;48.504;13.734;2023-07-13T06:34:01;27.00;70.20
16347;DHT22;8283;48.504;13.734;2023-07-13T06:36:45;27.00;70.10
16347;DHT22;8283;48.504;13.734;2023-07-13T06:39:29;27.10;70.00
16347;DHT22;8283;48.504;13.734;2023-07-13T06:42:16;27.10;70.10
16347;DHT22;8283;48.504;13.734;2023-07-13T06:45:00;27.10;69.90
16347;DHT22;8283;48.504;13.734;2023-07-13T06:47:45;27.20;70.00
16347;DHT22;8283;48.504;13.734;2023-07-13T06:50:29;27.20;69.90
16347;DHT22;8283;48.504;13.734;2023-07-13T06:53:18;27.30;70.20
16347;DHT22;8283;48.504;13.734;2023-07-13T06:56:03;27.30;70.10
16347;DHT22;8283;48.504;13.734;2023-07-13T06:58:47;27.40;70.20
16347;DHT22;8283;48.504;13.734;2023-07-13T07:01:31;27.50;70.00
16347;DHT22;8283;48.504;13.734;2023-07-13T07:04:15;27.50;69.80
16347;DHT22;8283;48.504;13.734;2023-07-13T07:07:00;27.60;69.90
16347;DHT22;8283;48.504;13.734;2023-07-13T07:09:44;27.60;69.90
16347;DHT22;8283;48.504;13.734;2023-07-13T07:12:29;27.80;69.90
16347;DHT22;8283;48.504;13.734;2023-07-13T07:15:13;27.70;70.00
16347;DHT22;8283;48.504;13.734;2023-07-13T07:17:58;27.80;70.00
16347;DHT22;8283;48.504;13.734;2023-07-13T07:20:42;28.10;70.20
16347;DHT22;8283;48.504;13.734;2023-07-13T07:23:27;28.10;69.70
16347;DHT22;8283;48.504;13.734;2023-07-13T07:26:11;28.20;69.30
16347;DHT22;8283;48.504;13.734;2023-07-13T07:28:55;28.30;68.90
16347;DHT22;8283;48.504;13.734;2023-07-13T07:31:40;28.40;68.60
16347;DHT22;8283;48.504;13.734;2023-07-13T07:34:24;28.40;68.50
16347;DHT22;8283;48.504;13.734;2023-07-13T07:37:13;28.50;68.10
16347;DHT22;8283;48.504;13.734;2023-07-13T07:39:57;28.50;67.30
16347;DHT22;8283;48.504;13.734;2023-07-13T07:42:43;28.60;67.20
16347;DHT22;8283;48.504;13.734;2023-07-13T07:45:28;28.60;67.20
16347;DHT22;8283;48.504;13.734;2023-07-13T07:48:13;28.60;66.70
16347;DHT22;8283;48.504;13.734;2023-07-13T07:50:57;28.60;67.00
16347;DHT22;8283;48.504;13.734;2023-07-13T07:53:41;28.60;67.00
16347;DHT22;8283;48.504;13.734;2023-07-13T07:56:25;28.70;67.50
16347;DHT22;8283;48.504;13.734;2023-07-13T07:59:10;28.80;67.60
16347;DHT22;8283;48.504;13.734;2023-07-13T08:01:54;28.90;67.60
16347;DHT22;8283;48.504;13.734;2023-07-13T08:04:38;29.00;67.70
16347;DHT22;8283;48.504;13.734;2023-07-13T08:07:23;29.10;67.00
16347;DHT22;8283;48.504;13.734;2023-07-13T08:10:08;29.30;66.80
16347;DHT22;8283;48.504;13.734;2023-07-13T08:12:52;29.40;66.60
16347;DHT22;8283;48.504;13.734;2023-07-13T08:15:37;29.50;66.30
16347;DHT22;8283;48.504;13.734;2023-07-13T08:18:21;29.60;65.30
16347;DHT22;8283;48.504;13.734;2023-07-13T08:21:07;29.60;64.90
16347;DHT22;8283;48.504;13.734;2023-07-13T08:23:52;29.60;64.50
16347;DHT22;8283;48.504;13.734;2023-07-13T08:26:36;29.60;64.60
16347;DHT22;8283;48.504;13.734;2023-07-13T08:29:21;29.60;64.40
16347;DHT22;8283;48.504;13.734;2023-07-13T08:32:06;29.60;64.70
16347;DHT22;8283;48.504;13.734;2023-07-13T08:34:53;29.70;65.50
16347;DHT22;8283;48.504;13.734;2023-07-13T08:37:38;29.80;65.40
16347;DHT22;8283;48.504;13.734;2023-07-13T08:40:25;30.00;65.40
16347;DHT22;8283;48.504;13.734;2023-07-13T08:43:16;30.10;63.80
16347;DHT22;8283;48.504;13.734;2023-07-13T08:46:39;30.20;63.10
16347;DHT22;8283;48.504;13.734;2023-07-13T08:49:25;30.30;62.20
16347;DHT22;8283;48.504;13.734;2023-07-13T08:52:26;30.30;63.00
16347;DHT22;8283;48.504;13.734;2023-07-13T08:55:24;30.40;62.40
16347;DHT22;8283;48.504;13.734;2023-07-13T08:58:12;30.40;62.40
16347;DHT22;8283;48.504;13.734;2023-07-13T09:01:22;30.50;62.10
16347;DHT22;8283;48.504;13.734;2023-07-13T09:04:14;30.60;61.50
16347;DHT22;8283;48.504;13.734;2023-07-13T09:10:14;30.70;61.70
16347;DHT22;8283;48.504;13.734;2023-07-13T09:13:24;30.70;60.90
16347;DHT22;8283;48.504;13.734;2023-07-13T09:16:11;30.80;59.90
16347;DHT22;8283;48.504;13.734;2023-07-13T09:19:01;30.80;61.50
16347;DHT22;8283;48.504;13.734;2023-07-13T09:21:46;30.90;61.10
16347;DHT22;8283;48.504;13.734;2023-07-13T09:25:10;31.00;61.60
16347;DHT22;8283;48.504;13.734;2023-07-13T09:28:00;31.10;59.80
16347;DHT22;8283;48.504;13.734;2023-07-13T09:33:38;31.40;59.80
16347;DHT22;8283;48.504;13.734;2023-07-13T09:36:31;31.50;60.90
16347;DHT22;8283;48.504;13.734;2023-07-13T09:39:28;31.60;60.00
16347;DHT22;8283;48.504;13.734;2023-07-13T09:42:22;31.70;58.80
16347;DHT22;8283;48.504;13.734;2023-07-13T09:45:06;31.70;58.50
16347;DHT22;8283;48.504;13.734;2023-07-13T09:48:06;31.80;59.00
16347;DHT22;8283;48.504;13.734;2023-07-13T09:50:54;31.90;57.50
16347;DHT22;8283;48.504;13.734;2023-07-13T09:53:42;31.90;57.70
16347;DHT22;8283;48.504;13.734;2023-07-13T09:56:28;31.90;58.10
16347;DHT22;8283;48.504;13.734;2023-07-13T09:59:22;32.00;58.30
16347;DHT22;8283;48.504;13.734;2023-07-13T10:02:34;32.00;57.20
16347;DHT22;8283;48.504;13.734;2023-07-13T10:05:19;32.10;56.80
16347;DHT22;8283;48.504;13.734;2023-07-13T10:08:06;32.10;57.60
16347;DHT22;8283;48.504;13.734;2023-07-13T10:11:00;32.10;57.70
16347;DHT22;8283;48.504;13.734;2023-07-13T10:16:46;32.20;56.20
16347;DHT22;8283;48.504;13.734;2023-07-13T10:19:35;32.30;56.80
16347;DHT22;8283;48.504;13.734;2023-07-13T10:22:23;32.30;56.00
16347;DHT22;8283;48.504;13.734;2023-07-13T10:25:33;32.30;56.70
16347;DHT22;8283;48.504;13.734;2023-07-13T10:28:35;32.30;55.50
16347;DHT22;8283;48.504;13.734;2023-07-13T10:31:21;32.40;55.80
16347;DHT22;8283;48.504;13.734;2023-07-13T10:34:09;32.40;56.70
16347;DHT22;8283;48.504;13.734;2023-07-13T10:36:55;32.50;55.50
16347;DHT22;8283;48.504;13.734;2023-07-13T10:39:40;32.60;56.10
16347;DHT22;8283;48.504;13.734;2023-07-13T10:42:32;32.60;55.80
16347;DHT22;8283;48.504;13.734;2023-07-13T10:45:23;32.60;54.40
16347;DHT22;8283;48.504;13.734;2023-07-13T10:48:12;32.60;53.40
16347;DHT22;8283;48.504;13.734;2023-07-13T10:50:57;32.50;53.70
16347;DHT22;8283;48.504;13.734;2023-07-13T10:53:43;32.50;54.80
16347;DHT22;8283;48.504;13.734;2023-07-13T10:56:31;32.40;54.70
16347;DHT22;8283;48.504;13.734;2023-07-13T10:59:20;32.40;53.80
16347;DHT22;8283;48.504;13.734;2023-07-13T11:02:15;32.40;53.60
16347;DHT22;8283;48.504;13.734;2023-07-13T11:14:31;32.10;52.70
16347;DHT22;8283;48.504;13.734;2023-07-13T11:26:00;31.60;52.50
16347;DHT22;8283;48.504;13.734;2023-07-13T11:28:49;31.40;53.10
16347;DHT22;8283;48.504;13.734;2023-07-13T11:31:35;31.30;52.80
16347;DHT22;8283;48.504;13.734;2023-07-13T11:34:45;31.10;53.70
16347;DHT22;8283;48.504;13.734;2023-07-13T11:37:30;31.00;53.80
16347;DHT22;8283;48.504;13.734;2023-07-13T11:40:15;31.00;54.10
16347;DHT22;8283;48.504;13.734;2023-07-13T11:43:01;30.90;53.80
16347;DHT22;8283;48.504;13.734;2023-07-13T11:45:45;30.80;54.10
16347;DHT22;8283;48.504;13.734;2023-07-13T11:48:30;30.80;54.20
16347;DHT22;8283;48.504;13.734;2023-07-13T11:51:25;30.80;53.90
16347;DHT22;8283;48.504;13.734;2023-07-13T11:54:30;30.70;53.60
16347;DHT22;8283;48.504;13.734;2023-07-13T11:57:36;30.60;53.60
16347;DHT22;8283;48.504;13.734;2023-07-13T12:00:26;30.60;54.30
16347;DHT22;8283;48.504;13.734;2023-07-13T12:03:13;30.60;54.40
16347;DHT22;8283;48.504;13.734;2023-07-13T12:06:25;30.60;54.40
16347;DHT22;8283;48.504;13.734;2023-07-13T12:09:12;30.60;54.60
16347;DHT22;8283;48.504;13.734;2023-07-13T12:11:57;30.60;54.20
16347;DHT22;8283;48.504;13.734;2023-07-13T12:14:44;30.60;54.30
16347;DHT22;8283;48.504;13.734;2023-07-13T12:17:28;30.50;54.20
16347;DHT22;8283;48.504;13.734;2023-07-13T12:20:36;30.50;54.10
16347;DHT22;8283;48.504;13.734;2023-07-13T12:23:35;30.40;54.30
16347;DHT22;8283;48.504;13.734;2023-07-13T12:26:19;30.30;54.00
16347;DHT22;8283;48.504;13.734;2023-07-13T12:29:06;30.30;54.80
16347;DHT22;8283;48.504;13.734;2023-07-13T12:31:50;30.30;54.80
16347;DHT22;8283;48.504;13.734;2023-07-13T12:34:54;30.40;54.80
16347;DHT22;8283;48.504;13.734;2023-07-13T12:37:42;30.40;54.50
16347;DHT22;8283;48.504;13.734;2023-07-13T12:40:32;30.50;55.20
16347;DHT22;8283;48.504;13.734;2023-07-13T12:43:17;30.60;55.10
16347;DHT22;8283;48.504;13.734;2023-07-13T12:46:04;30.80;55.50
16347;DHT22;8283;48.504;13.734;2023-07-13T12:48:53;30.90;56.20
16347;DHT22;8283;48.504;13.734;2023-07-13T12:51:38;31.30;56.00
16347;DHT22;8283;48.504;13.734;2023-07-13T12:54:23;31.60;56.80
16347;DHT22;8283;48.504;13.734;2023-07-13T12:57:16;31.90;56.50
16347;DHT22;8283;48.504;13.734;2023-07-13T13:00:03;32.30;55.20
16347;DHT22;8283;48.504;13.734;2023-07-13T13:02:50;32.60;56.20
16347;DHT22;8283;48.504;13.734;2023-07-13T13:05:35;33.00;55.90
16347;DHT22;8283;48.504;13.734;2023-07-13T13:08:22;33.30;54.60
16347;DHT22;8283;48.504;13.734;2023-07-13T13:11:06;33.60;54.20
16347;DHT22;8283;48.504;13.734;2023-07-13T13:13:51;33.90;53.60
16347;DHT22;8283;48.504;13.734;2023-07-13T13:16:50;34.10;53.10
16347;DHT22;8283;48.504;13.734;2023-07-13T13:19:35;34.30;52.30
16347;DHT22;8283;48.504;13.734;2023-07-13T13:22:20;34.40;52.40
16347;DHT22;8283;48.504;13.734;2023-07-13T13:25:06;34.50;51.50
16347;DHT22;8283;48.504;13.734;2023-07-13T13:27:52;34.60;50.90
16347;DHT22;8283;48.504;13.734;2023-07-13T13:30:37;34.60;50.70
16347;DHT22;8283;48.504;13.734;2023-07-13T13:33:21;34.50;50.60
16347;DHT22;8283;48.504;13.734;2023-07-13T13:38:59;34.50;50.30
16347;DHT22;8283;48.504;13.734;2023-07-13T13:41:46;34.50;50.30
16347;DHT22;8283;48.504;13.734;2023-07-13T13:44:30;34.50;49.90
16347;DHT22;8283;48.504;13.734;2023-07-13T13:47:41;34.50;49.50
16347;DHT22;8283;48.504;13.734;2023-07-13T13:50:28;34.40;48.90
16347;DHT22;8283;48.504;13.734;2023-07-13T13:53:13;34.40;48.90
16347;DHT22;8283;48.504;13.734;2023-07-13T13:56:00;34.30;49.20
16347;DHT22;8283;48.504;13.734;2023-07-13T13:58:45;34.30;49.40
16347;DHT22;8283;48.504;13.734;2023-07-13T14:01:31;34.30;49.30
16347;DHT22;8283;48.504;13.734;2023-07-13T14:04:18;34.30;49.00
16347;DHT22;8283;48.504;13.734;2023-07-13T14:07:03;34.30;48.60
16347;DHT22;8283;48.504;13.734;2023-07-13T14:09:48;34.30;48.20
16347;DHT22;8283;48.504;13.734;2023-07-13T14:12:32;34.10;47.50
16347;DHT22;8283;48.504;13.734;2023-07-13T14:15:27;34.00;47.40
16347;DHT22;8283;48.504;13.734;2023-07-13T14:18:12;33.90;46.90
16347;DHT22;8283;48.504;13.734;2023-07-13T14:21:01;33.80;47.70
16347;DHT22;8283;48.504;13.734;2023-07-13T14:23:46;33.70;48.00
16347;DHT22;8283;48.504;13.734;2023-07-13T14:26:36;33.60;48.00
16347;DHT22;8283;48.504;13.734;2023-07-13T14:29:21;33.60;47.80
16347;DHT22;8283;48.504;13.734;2023-07-13T14:32:11;33.70;48.20
16347;DHT22;8283;48.504;13.734;2023-07-13T14:34:56;33.70;48.30
16347;DHT22;8283;48.504;13.734;2023-07-13T14:37:42;33.80;48.70
16347;DHT22;8283;48.504;13.734;2023-07-13T14:40:30;33.90;48.20
16347;DHT22;8283;48.504;13.734;2023-07-13T14:43:16;33.90;47.90
16347;DHT22;8283;48.504;13.734;2023-07-13T14:46:00;33.90;47.80
16347;DHT22;8283;48.504;13.734;2023-07-13T14:48:45;33.90;47.40
16347;DHT22;8283;48.504;13.734;2023-07-13T14:51:30;33.90;46.90
16347;DHT22;8283;48.504;13.734;2023-07-13T14:54:15;33.90;46.70
16347;DHT22;8283;48.504;13.734;2023-07-13T14:57:00;33.70;46.60
16347;DHT22;8283;48.504;13.734;2023-07-13T14:59:46;33.60;46.40
16347;DHT22;8283;48.504;13.734;2023-07-13T15:02:34;33.50;46.10
16347;DHT22;8283;48.504;13.734;2023-07-13T15:05:23;33.30;45.60
16347;DHT22;8283;48.504;13.734;2023-07-13T15:08:09;33.10;45.40
16347;DHT22;8283;48.504;13.734;2023-07-13T15:10:54;33.00;46.10
16347;DHT22;8283;48.504;13.734;2023-07-13T15:13:42;32.90;46.60
16347;DHT22;8283;48.504;13.734;2023-07-13T15:16:29;32.80;46.60
16347;DHT22;8283;48.504;13.734;2023-07-13T15:19:13;32.70;47.00
16347;DHT22;8283;48.504;13.734;2023-07-13T15:21:58;32.70;47.10
16347;DHT22;8283;48.504;13.734;2023-07-13T15:24:42;32.80;47.30
16347;DHT22;8283;48.504;13.734;2023-07-13T15:27:26;32.80;47.20
16347;DHT22;8283;48.504;13.734;2023-07-13T15:30:11;32.90;47.30
16347;DHT22;8283;48.504;13.734;2023-07-13T15:33:05;32.90;46.80
16347;DHT22;8283;48.504;13.734;2023-07-13T15:35:54;32.90;46.70
16347;DHT22;8283;48.504;13.734;2023-07-13T15:38:39;33.00;48.10
16347;DHT22;8283;48.504;13.734;2023-07-13T15:41:28;33.30;48.50
16347;DHT22;8283;48.504;13.734;2023-07-13T15:44:31;33.50;47.70
16347;DHT22;8283;48.504;13.734;2023-07-13T15:47:16;33.70;46.50
16347;DHT22;8283;48.504;13.734;2023-07-13T15:50:01;33.80;47.20
16347;DHT22;8283;48.504;13.734;2023-07-13T15:52:55;33.90;47.70
16347;DHT22;8283;48.504;13.734;2023-07-13T15:55:42;34.10;46.40
16347;DHT22;8283;48.504;13.734;2023-07-13T15:58:26;34.10;46.40
16347;DHT22;8283;48.504;13.734;2023-07-13T16:01:12;34.10;45.90
16347;DHT22;8283;48.504;13.734;2023-07-13T16:03:57;34.10;45.90
16347;DHT22;8283;48.504;13.734;2023-07-13T16:06:42;33.90;45.70
16347;DHT22;8283;48.504;13.734;2023-07-13T16:09:27;33.80;46.00
16347;DHT22;8283;48.504;13.734;2023-07-13T16:12:14;33.90;46.50
16347;DHT22;8283;48.504;13.734;2023-07-13T16:14:59;33.90;47.40
16347;DHT22;8283;48.504;13.734;2023-07-13T16:17:45;34.20;47.80
16347;DHT22;8283;48.504;13.734;2023-07-13T16:20:30;34.50;47.80
16347;DHT22;8283;48.504;13.734;2023-07-13T16:23:16;34.90;47.90
16347;DHT22;8283;48.504;13.734;2023-07-13T16:26:01;35.30;47.80
16347;DHT22;8283;48.504;13.734;2023-07-13T16:28:47;35.80;47.40
16347;DHT22;8283;48.504;13.734;2023-07-13T16:31:31;36.20;47.00
16347;DHT22;8283;48.504;13.734;2023-07-13T16:34:19;36.50;46.50
16347;DHT22;8283;48.504;13.734;2023-07-13T16:37:42;36.80;45.90
16347;DHT22;8283;48.504;13.734;2023-07-13T16:40:31;37.00;43.90
16347;DHT22;8283;48.504;13.734;2023-07-13T16:43:18;37.00;43.20
16347;DHT22;8283;48.504;13.734;2023-07-13T16:46:10;36.80;42.90
16347;DHT22;8283;48.504;13.734;2023-07-13T16:48:55;36.50;42.20
16347;DHT22;8283;48.504;13.734;2023-07-13T16:51:39;36.20;42.40
16347;DHT22;8283;48.504;13.734;2023-07-13T16:54:24;35.80;42.60
16347;DHT22;8283;48.504;13.734;2023-07-13T16:57:23;35.50;42.70
16347;DHT22;8283;48.504;13.734;2023-07-13T17:00:19;35.20;42.50
16347;DHT22;8283;48.504;13.734;2023-07-13T17:03:07;34.90;42.70
16347;DHT22;8283;48.504;13.734;2023-07-13T17:05:54;34.70;42.80
16347;DHT22;8283;48.504;13.734;2023-07-13T17:08:41;34.40;43.30
16347;DHT22;8283;48.504;13.734;2023-07-13T17:11:25;34.20;43.40
16347;DHT22;8283;48.504;13.734;2023-07-13T17:14:17;33.90;43.40
16347;DHT22;8283;48.504;13.734;2023-07-13T17:17:15;33.60;44.20
16347;DHT22;8283;48.504;13.734;2023-07-13T17:20:00;33.40;44.90
16347;DHT22;8283;48.504;13.734;2023-07-13T17:22:47;33.20;44.30
16347;DHT22;8283;48.504;13.734;2023-07-13T17:25:31;32.90;44.30
16347;DHT22;8283;48.504;13.734;2023-07-13T17:28:16;32.60;44.30
16347;DHT22;8283;48.504;13.734;2023-07-13T17:31:02;32.40;44.80
16347;DHT22;8283;48.504;13.734;2023-07-13T17:33:47;32.10;45.10
16347;DHT22;8283;48.504;13.734;2023-07-13T17:36:31;31.90;44.90
16347;DHT22;8283;48.504;13.734;2023-07-13T17:39:20;31.70;45.00
16347;DHT22;8283;48.504;13.734;2023-07-13T17:42:05;31.50;45.50
16347;DHT22;8283;48.504;13.734;2023-07-13T17:44:49;31.40;45.80
16347;DHT22;8283;48.504;13.734;2023-07-13T17:47:34;31.20;46.10
16347;DHT22;8283;48.504;13.734;2023-07-13T17:50:37;31.10;46.40
16347;DHT22;8283;48.504;13.734;2023-07-13T17:53:28;30.90;47.20
16347;DHT22;8283;48.504;13.734;2023-07-13T17:56:13;30.80;46.70
16347;DHT22;8283;48.504;13.734;2023-07-13T17:59:00;30.70;46.90
16347;DHT22;8283;48.504;13.734;2023-07-13T18:01:45;30.60;46.90
16347;DHT22;8283;48.504;13.734;2023-07-13T18:04:30;30.40;47.20